createdAt,value
2018-05-14T00:01:04.810Z,15.30
2018-05-14T00:03:31.013Z,15.30
2018-05-14T00:05:57.947Z,15.30
2018-05-14T00:08:24.910Z,15.20
2018-05-14T00:10:51.103Z,15.20
2018-05-14T00:13:18.803Z,15.10
2018-05-14T00:15:44.994Z,15.10
2018-05-14T00:18:11.215Z,15.10
2018-05-14T00:20:38.188Z,15.00
2018-05-14T00:23:05.991Z,15.00
2018-05-14T00:25:32.195Z,15.00
2018-05-14T00:27:59.196Z,15.00
2018-05-14T00:30:26.199Z,15.00
2018-05-14T00:32:53.188Z,14.90
2018-05-14T00:35:19.394Z,14.90
2018-05-14T00:37:45.623Z,14.90
2018-05-14T00:40:11.818Z,14.90
2018-05-14T00:42:38.787Z,14.90
2018-05-14T00:45:04.978Z,14.80
2018-05-14T00:47:31.212Z,14.80
2018-05-14T00:49:58.146Z,14.80
2018-05-14T00:52:25.111Z,14.80
2018-05-14T00:55:04.283Z,14.80
2018-05-14T00:57:30.506Z,14.80
2018-05-14T00:59:57.652Z,14.80
2018-05-14T01:02:23.854Z,14.70
2018-05-14T01:04:51.794Z,14.70
2018-05-14T01:07:18.522Z,14.70
2018-05-14T01:09:46.150Z,14.70
2018-05-14T01:12:12.925Z,14.70
2018-05-14T01:14:39.268Z,14.70
2018-05-14T01:17:05.491Z,14.60
2018-05-14T01:19:31.720Z,14.60
2018-05-14T01:21:57.927Z,14.60
2018-05-14T01:24:24.691Z,14.50
2018-05-14T01:26:50.896Z,14.50
2018-05-14T01:29:18.021Z,14.50
2018-05-14T01:31:44.227Z,14.50
2018-05-14T01:34:11.187Z,14.50
2018-05-14T01:36:37.387Z,14.40
2018-05-14T01:39:04.374Z,14.40
2018-05-14T01:41:30.572Z,14.40
2018-05-14T01:43:57.531Z,14.40
2018-05-14T01:46:25.517Z,14.40
2018-05-14T01:48:53.260Z,14.30
2018-05-14T01:51:20.197Z,14.40
2018-05-14T01:53:46.416Z,14.30
2018-05-14T01:56:12.729Z,14.30
2018-05-14T01:58:38.947Z,14.30
2018-05-14T02:01:05.150Z,14.30
2018-05-14T02:03:31.367Z,14.30
2018-05-14T02:05:57.559Z,14.30
2018-05-14T02:08:23.847Z,14.30
2018-05-14T02:10:50.046Z,14.30
2018-05-14T02:13:16.318Z,14.20
2018-05-14T02:15:42.519Z,14.20
2018-05-14T02:18:08.734Z,14.20
2018-05-14T02:20:35.675Z,14.10
2018-05-14T02:23:02.630Z,14.10
2018-05-14T02:25:29.571Z,14.10
2018-05-14T02:27:56.538Z,14.00
2018-05-14T02:30:23.574Z,14.00
2018-05-14T02:32:49.795Z,14.00
2018-05-14T02:35:16.736Z,13.90
2018-05-14T02:37:43.700Z,13.90
2018-05-14T02:40:09.892Z,13.90
2018-05-14T02:42:37.595Z,13.80
2018-05-14T02:45:03.835Z,13.80
2018-05-14T02:47:30.059Z,13.80
2018-05-14T02:50:03.310Z,13.80
2018-05-14T02:52:29.527Z,13.80
2018-05-14T02:54:55.735Z,13.70
2018-05-14T02:57:21.963Z,13.70
2018-05-14T02:59:48.187Z,13.70
2018-05-14T03:02:14.392Z,13.60
2018-05-14T03:04:40.620Z,13.70
2018-05-14T03:07:06.822Z,13.60
2018-05-14T03:09:33.786Z,13.50
2018-05-14T03:11:59.982Z,13.50
2018-05-14T03:14:26.217Z,13.50
2018-05-14T03:16:53.166Z,13.50
2018-05-14T03:19:20.135Z,13.50
2018-05-14T03:21:47.070Z,13.40
2018-05-14T03:24:14.059Z,13.40
2018-05-14T03:26:40.278Z,13.40
2018-05-14T03:29:06.500Z,13.40
2018-05-14T03:31:32.719Z,13.40
2018-05-14T03:33:58.918Z,13.40
2018-05-14T03:36:25.143Z,13.40
2018-05-14T03:38:51.349Z,13.40
2018-05-14T03:41:17.611Z,13.40
2018-05-14T03:43:44.559Z,13.50
2018-05-14T03:46:11.511Z,13.50
2018-05-14T03:48:38.442Z,13.50
2018-05-14T03:51:04.666Z,13.50
2018-05-14T03:53:30.869Z,13.60
2018-05-14T03:55:57.092Z,13.60
2018-05-14T03:58:35.701Z,13.60
2018-05-14T04:01:14.823Z,13.70
2018-05-14T04:03:53.423Z,13.70
2018-05-14T04:06:32.306Z,13.80
2018-05-14T04:08:58.504Z,13.70
2018-05-14T04:11:24.703Z,13.80
2018-05-14T04:13:51.668Z,13.80
2018-05-14T04:16:18.686Z,13.80
2018-05-14T04:18:45.642Z,13.90
2018-05-14T04:21:12.671Z,13.90
2018-05-14T04:23:38.831Z,13.90
2018-05-14T04:26:05.027Z,14.00
2018-05-14T04:28:32.731Z,14.00
2018-05-14T04:30:58.947Z,14.00
2018-05-14T04:33:25.241Z,14.10
2018-05-14T04:35:51.394Z,14.20
2018-05-14T04:38:18.357Z,14.20
2018-05-14T04:40:44.557Z,14.20
2018-05-14T04:43:10.774Z,14.20
2018-05-14T04:45:36.973Z,14.20
2018-05-14T04:48:10.319Z,14.30
2018-05-14T04:50:37.255Z,14.40
2018-05-14T04:53:04.375Z,14.40
2018-05-14T04:55:30.584Z,14.40
2018-05-14T04:57:56.786Z,14.50
2018-05-14T05:00:23.024Z,14.60
2018-05-14T05:02:49.225Z,14.60
2018-05-14T05:05:19.039Z,14.80
2018-05-14T05:07:45.985Z,14.90
2018-05-14T05:10:12.951Z,15.00
2018-05-14T05:12:39.148Z,14.90
2018-05-14T05:15:06.124Z,15.10
2018-05-14T05:17:32.325Z,15.10
2018-05-14T05:19:59.355Z,15.30
2018-05-14T05:22:25.566Z,15.30
2018-05-14T05:24:51.799Z,15.40
2018-05-14T05:27:17.995Z,15.50
2018-05-14T05:29:44.219Z,15.60
2018-05-14T05:32:10.443Z,15.70
2018-05-14T05:34:36.729Z,15.80
2018-05-14T05:37:02.965Z,15.90
2018-05-14T05:39:29.468Z,15.90
2018-05-14T05:41:55.683Z,16.00
2018-05-14T05:44:21.874Z,16.20
2018-05-14T05:46:48.842Z,16.30
2018-05-14T05:49:15.775Z,16.50
2018-05-14T05:51:42.770Z,16.50
2018-05-14T05:54:08.971Z,16.50
2018-05-14T05:56:35.188Z,16.60
2018-05-14T05:59:02.123Z,16.90
2018-05-14T06:01:29.110Z,17.10
2018-05-14T06:03:55.375Z,17.10
2018-05-14T06:06:21.595Z,17.30
2018-05-14T06:08:47.798Z,17.70
2018-05-14T06:11:14.023Z,17.90
2018-05-14T06:13:40.211Z,18.00
2018-05-14T06:16:07.171Z,18.40
2018-05-14T06:18:34.115Z,18.80
2018-05-14T06:21:01.075Z,19.20
2018-05-14T06:23:27.271Z,19.20
2018-05-14T06:25:53.490Z,19.90
2018-05-14T06:28:19.682Z,20.30
2018-05-14T06:30:48.064Z,20.50
2018-05-14T06:33:16.698Z,21.20
2018-05-14T06:35:43.726Z,21.40
2018-05-14T06:38:10.622Z,21.50
2018-05-14T06:40:37.809Z,21.50
2018-05-14T06:43:04.027Z,22.20
2018-05-14T06:45:30.796Z,22.10
2018-05-14T06:47:57.255Z,22.20
2018-05-14T06:50:24.249Z,22.80
2018-05-14T06:52:50.487Z,22.80
2018-05-14T06:55:16.687Z,22.90
2018-05-14T06:57:43.055Z,23.20
2018-05-14T07:00:09.252Z,22.90
2018-05-14T07:02:35.451Z,23.50
2018-05-14T07:05:02.413Z,22.30
2018-05-14T07:07:28.675Z,22.30
2018-05-14T07:09:54.893Z,22.90
2018-05-14T07:12:21.096Z,23.50
2018-05-14T07:14:47.311Z,24.00
2018-05-14T07:17:14.451Z,24.70
2018-05-14T07:19:40.663Z,24.60
2018-05-14T07:22:06.863Z,25.20
2018-05-14T07:24:33.111Z,25.60
2018-05-14T07:26:59.311Z,25.80
2018-05-14T07:29:25.572Z,26.10
2018-05-14T07:31:51.782Z,26.20
2018-05-14T07:34:17.998Z,26.80
2018-05-14T07:36:44.200Z,27.30
2018-05-14T07:39:11.159Z,27.40
2018-05-14T07:41:37.355Z,27.40
2018-05-14T07:44:04.321Z,28.20
2018-05-14T07:46:30.577Z,28.20
2018-05-14T07:48:57.017Z,27.60
2018-05-14T07:51:23.231Z,28.00
2018-05-14T07:53:49.427Z,28.50
2018-05-14T07:56:16.782Z,29.30
2018-05-14T07:58:43.715Z,29.60
2018-05-14T08:01:09.939Z,29.50
2018-05-14T08:03:36.894Z,30.00
2018-05-14T08:06:04.571Z,30.10
2018-05-14T08:08:31.534Z,30.00
2018-05-14T08:10:57.734Z,30.00
2018-05-14T08:13:23.928Z,30.00
2018-05-14T08:15:50.156Z,29.90
2018-05-14T08:18:16.363Z,29.70
2018-05-14T08:20:43.587Z,30.00
2018-05-14T08:23:10.526Z,30.40
2018-05-14T08:25:38.259Z,30.50
2018-05-14T08:28:04.451Z,30.50
2018-05-14T08:30:30.695Z,30.60
2018-05-14T08:32:56.924Z,30.60
2018-05-14T08:35:23.183Z,30.80
2018-05-14T08:37:49.375Z,30.70
2018-05-14T08:40:15.603Z,30.00
2018-05-14T08:42:41.799Z,29.70
2018-05-14T08:45:08.764Z,30.40
2018-05-14T08:47:35.218Z,30.40
2018-05-14T08:50:01.439Z,30.30
2018-05-14T08:52:27.639Z,30.20
2018-05-14T08:54:54.599Z,30.40
2018-05-14T08:57:20.794Z,30.30
2018-05-14T08:59:47.014Z,30.90
2018-05-14T09:02:13.206Z,31.10
2018-05-14T09:04:39.435Z,31.50
2018-05-14T09:07:05.630Z,31.80
2018-05-14T09:09:31.862Z,32.20
2018-05-14T09:11:58.064Z,31.70
2018-05-14T09:14:24.288Z,31.70
2018-05-14T09:16:50.487Z,31.30
2018-05-14T09:19:16.746Z,31.10
2018-05-14T09:21:42.938Z,31.50
2018-05-14T09:24:09.167Z,31.10
2018-05-14T09:26:35.430Z,31.60
2018-05-14T09:29:01.661Z,32.20
2018-05-14T09:31:27.883Z,33.30
2018-05-14T09:33:54.247Z,33.50
2018-05-14T09:36:21.179Z,33.60
2018-05-14T09:38:47.398Z,33.60
2018-05-14T09:41:14.339Z,34.40
2018-05-14T09:43:40.578Z,34.40
2018-05-14T09:46:06.789Z,34.50
2018-05-14T09:48:33.015Z,34.20
2018-05-14T09:50:59.215Z,34.40
2018-05-14T09:53:25.434Z,32.80
2018-05-14T09:55:51.640Z,32.90
2018-05-14T09:58:18.632Z,34.40
2018-05-14T10:00:44.836Z,34.40
2018-05-14T10:03:11.119Z,34.60
2018-05-14T10:05:37.428Z,35.00
2018-05-14T10:08:03.655Z,35.00
2018-05-14T10:10:29.887Z,35.40
2018-05-14T10:12:57.807Z,35.40
2018-05-14T10:15:23.964Z,36.40
2018-05-14T10:17:50.190Z,36.50
2018-05-14T10:20:16.408Z,36.80
2018-05-14T10:22:42.631Z,36.70
2018-05-14T10:25:08.838Z,36.40
2018-05-14T10:27:35.799Z,35.50
2018-05-14T10:30:02.052Z,35.60
2018-05-14T10:32:28.751Z,35.20
2018-05-14T10:34:55.727Z,34.20
2018-05-14T10:37:21.936Z,34.20
2018-05-14T10:39:48.899Z,34.90
2018-05-14T10:42:15.091Z,34.90
2018-05-14T10:44:41.315Z,35.50
2018-05-14T10:47:08.259Z,35.30
2018-05-14T10:49:34.482Z,35.30
2018-05-14T10:52:00.696Z,35.20
2018-05-14T10:54:26.928Z,35.30
2018-05-14T10:56:53.120Z,35.50
2018-05-14T10:59:19.566Z,36.00
2018-05-14T11:01:45.790Z,35.50
2018-05-14T11:04:12.079Z,35.20
2018-05-14T11:06:39.020Z,35.90
2018-05-14T11:09:05.246Z,35.90
2018-05-14T11:11:31.451Z,36.40
2018-05-14T11:13:57.674Z,35.60
2018-05-14T11:16:23.875Z,35.50
2018-05-14T11:18:50.181Z,36.30
2018-05-14T11:21:16.331Z,37.00
2018-05-14T11:23:42.542Z,36.80
2018-05-14T11:26:09.483Z,36.50
2018-05-14T11:28:36.455Z,35.90
2018-05-14T11:31:02.682Z,35.90
2018-05-14T11:33:28.900Z,36.30
2018-05-14T11:35:55.091Z,36.50
2018-05-14T11:38:21.310Z,35.80
2018-05-14T11:40:47.742Z,36.30
2018-05-14T11:43:14.738Z,35.40
2018-05-14T11:45:41.195Z,35.40
2018-05-14T11:48:07.483Z,35.80
2018-05-14T11:50:34.423Z,35.90
2018-05-14T11:53:01.384Z,35.70
2018-05-14T11:55:27.608Z,35.70
2018-05-14T11:57:54.575Z,35.40
2018-05-14T12:00:20.766Z,35.40
2018-05-14T12:02:46.989Z,35.90
2018-05-14T12:05:13.195Z,35.50
2018-05-14T12:07:39.418Z,35.40
2018-05-14T12:10:05.625Z,35.70
2018-05-14T12:12:31.922Z,35.10
2018-05-14T12:14:59.559Z,35.30
2018-05-14T12:17:25.783Z,35.30
2018-05-14T12:19:52.721Z,36.60
2018-05-14T12:22:18.942Z,36.50
2018-05-14T12:24:45.163Z,36.70
2018-05-14T12:27:11.387Z,36.20
2018-05-14T12:29:37.585Z,35.30
2018-05-14T12:32:04.669Z,34.80
2018-05-14T12:34:30.803Z,34.80
2018-05-14T12:36:57.063Z,35.20
2018-05-14T12:39:23.259Z,34.60
2018-05-14T12:41:49.454Z,34.80
2018-05-14T12:44:15.679Z,34.80
2018-05-14T12:46:41.874Z,34.50
2018-05-14T12:49:08.100Z,34.60
2018-05-14T12:51:34.303Z,34.60
2018-05-14T12:54:00.527Z,34.60
2018-05-14T12:56:26.756Z,34.80
2018-05-14T12:58:52.951Z,34.90
2018-05-14T13:01:19.334Z,35.20
2018-05-14T13:03:45.533Z,35.80
2018-05-14T13:06:12.056Z,35.90
2018-05-14T13:08:38.315Z,35.80
2018-05-14T13:11:04.591Z,35.80
2018-05-14T13:13:31.595Z,35.20
2018-05-14T13:15:57.811Z,35.10
2018-05-14T13:18:24.090Z,35.60
2018-05-14T13:20:51.041Z,35.80
2018-05-14T13:23:18.040Z,36.20
2018-05-14T13:25:44.258Z,36.10
2018-05-14T13:28:10.486Z,35.80
2018-05-14T13:30:36.711Z,35.60
2018-05-14T13:33:02.951Z,35.80
2018-05-14T13:35:29.174Z,35.20
2018-05-14T13:37:55.490Z,34.30
2018-05-14T13:40:21.619Z,34.60
2018-05-14T13:42:47.895Z,33.40
2018-05-14T13:45:14.067Z,33.20
2018-05-14T13:47:40.298Z,33.20
2018-05-14T13:50:06.539Z,33.00
2018-05-14T13:52:32.755Z,32.50
2018-05-14T13:54:58.965Z,33.40
2018-05-14T13:57:26.145Z,32.80
2018-05-14T13:59:52.749Z,32.80
2018-05-14T14:02:19.694Z,32.90
2018-05-14T14:04:45.914Z,32.90
2018-05-14T14:07:12.115Z,32.70
2018-05-14T14:09:38.367Z,32.20
2018-05-14T14:12:04.569Z,31.70
2018-05-14T14:14:30.790Z,31.60
2018-05-14T14:16:57.004Z,32.20
2018-05-14T14:19:23.243Z,32.00
2018-05-14T14:21:49.443Z,31.70
2018-05-14T14:24:16.426Z,31.30
2018-05-14T14:26:42.635Z,31.30
2018-05-14T14:29:08.855Z,31.50
2018-05-14T14:31:35.082Z,32.00
2018-05-14T14:34:01.303Z,31.00
2018-05-14T14:36:28.368Z,31.00
2018-05-14T14:38:54.543Z,31.00
2018-05-14T14:41:20.743Z,31.10
2018-05-14T14:43:46.966Z,31.50
2018-05-14T14:46:13.155Z,31.60
2018-05-14T14:48:40.121Z,31.50
2018-05-14T14:51:06.338Z,31.50
2018-05-14T14:53:33.356Z,31.10
2018-05-14T14:55:59.528Z,31.00
2018-05-14T14:58:25.819Z,30.50
2018-05-14T15:00:51.974Z,30.40
2018-05-14T15:03:18.929Z,29.40
2018-05-14T15:05:45.175Z,29.40
2018-05-14T15:08:11.367Z,29.30
2018-05-14T15:10:38.327Z,29.60
2018-05-14T15:13:05.262Z,29.20
2018-05-14T15:15:32.223Z,29.30
2018-05-14T15:17:58.430Z,29.30
2018-05-14T15:20:24.652Z,29.60
2018-05-14T15:22:52.512Z,29.40
2018-05-14T15:25:19.812Z,29.00
2018-05-14T15:27:46.003Z,29.00
2018-05-14T15:30:15.615Z,28.60
2018-05-14T15:32:41.835Z,28.80
2018-05-14T15:35:08.060Z,29.00
2018-05-14T15:37:34.256Z,28.80
2018-05-14T15:40:00.966Z,28.60
2018-05-14T15:42:27.168Z,28.50
2018-05-14T15:44:53.386Z,28.70
2018-05-14T15:47:19.575Z,28.20
2018-05-14T15:49:45.790Z,27.90
2018-05-14T15:52:12.056Z,27.60
2018-05-14T15:54:38.283Z,27.60
2018-05-14T15:57:04.476Z,27.40
2018-05-14T15:59:30.699Z,27.30
2018-05-14T16:01:56.945Z,27.30
2018-05-14T16:04:23.180Z,27.10
2018-05-14T16:06:49.444Z,27.00
2018-05-14T16:09:15.639Z,26.70
2018-05-14T16:11:41.859Z,26.50
2018-05-14T16:14:08.051Z,26.60
2018-05-14T16:16:35.012Z,25.70
2018-05-14T16:19:01.211Z,25.70
2018-05-14T16:21:27.426Z,25.60
2018-05-14T16:23:53.618Z,25.50
2018-05-14T16:26:19.921Z,25.00
2018-05-14T16:28:46.067Z,24.50
2018-05-14T16:31:12.318Z,24.30
2018-05-14T16:33:38.510Z,23.80
2018-05-14T16:36:05.476Z,23.30
2018-05-14T16:38:31.667Z,23.30
2018-05-14T16:40:58.635Z,23.00
2018-05-14T16:43:25.573Z,22.90
2018-05-14T16:45:52.458Z,22.80
2018-05-14T16:48:18.685Z,22.60
2018-05-14T16:50:45.857Z,22.60
2018-05-14T16:53:12.074Z,22.40
2018-05-14T16:55:38.270Z,22.40
2018-05-14T16:58:04.494Z,22.20
2018-05-14T17:00:30.695Z,21.90
2018-05-14T17:02:57.004Z,21.70
2018-05-14T17:05:23.199Z,21.60
2018-05-14T17:07:49.415Z,21.60
2018-05-14T17:10:15.614Z,21.50
2018-05-14T17:12:41.830Z,21.50
2018-05-14T17:15:08.026Z,21.30
2018-05-14T17:17:34.247Z,21.30
2018-05-14T17:20:00.446Z,21.20
2018-05-14T17:22:27.462Z,21.10
2018-05-14T17:24:53.664Z,21.10
2018-05-14T17:27:19.895Z,21.00
2018-05-14T17:29:46.155Z,20.90
2018-05-14T17:32:13.770Z,20.90
2018-05-14T17:34:39.971Z,20.80
2018-05-14T17:37:06.906Z,20.70
2018-05-14T17:39:33.883Z,20.60
2018-05-14T17:42:00.079Z,20.50
2018-05-14T17:44:34.087Z,20.40
2018-05-14T17:47:01.100Z,20.40
2018-05-14T17:49:27.270Z,20.30
2018-05-14T17:51:54.211Z,20.20
2018-05-14T17:54:21.184Z,20.20
2018-05-14T17:56:47.380Z,20.10
2018-05-14T17:59:14.349Z,19.90
2018-05-14T18:01:41.296Z,19.80
2018-05-14T18:04:07.614Z,19.80
2018-05-14T18:06:34.555Z,19.60
2018-05-14T18:09:01.520Z,19.60
2018-05-14T18:11:28.800Z,19.50
2018-05-14T18:13:55.143Z,19.50
2018-05-14T18:16:21.347Z,19.40
2018-05-14T18:18:47.572Z,19.20
2018-05-14T18:21:14.608Z,19.10
2018-05-14T18:23:45.899Z,19.10
2018-05-14T18:26:16.172Z,19.00
2018-05-14T18:28:43.199Z,18.60
2018-05-14T18:31:15.590Z,18.60
2018-05-14T18:33:42.571Z,18.50
2018-05-14T18:36:08.766Z,18.50
2018-05-14T18:38:35.723Z,18.30
2018-05-14T18:41:01.919Z,18.30
2018-05-14T18:43:28.150Z,18.30
2018-05-14T18:45:54.410Z,18.20
2018-05-14T18:48:21.371Z,17.90
2018-05-14T18:50:47.570Z,17.90
2018-05-14T18:53:14.551Z,17.70
2018-05-14T18:55:40.742Z,17.70
2018-05-14T18:58:07.683Z,17.50
2018-05-14T19:00:34.647Z,17.40
2018-05-14T19:03:01.584Z,17.30
2018-05-14T19:05:28.557Z,17.20
2018-05-14T19:07:54.759Z,17.20
2018-05-14T19:10:27.927Z,17.00
2018-05-14T19:12:54.128Z,17.00
2018-05-14T19:15:26.390Z,17.00
2018-05-14T19:17:58.702Z,16.90
2018-05-14T19:20:25.682Z,16.70
2018-05-14T19:22:57.995Z,16.70
2018-05-14T19:25:24.225Z,16.70
2018-05-14T19:27:56.500Z,16.60
2018-05-14T19:30:22.752Z,16.50
2018-05-14T19:32:48.976Z,16.50
2018-05-14T19:35:22.679Z,16.40
2018-05-14T19:37:49.622Z,16.50
2018-05-14T19:40:22.117Z,16.40
2018-05-14T19:42:49.059Z,16.30
2018-05-14T19:45:16.014Z,16.30
2018-05-14T19:47:42.960Z,16.20
2018-05-14T19:50:10.023Z,16.20
2018-05-14T19:52:36.167Z,16.20
2018-05-14T19:55:02.398Z,16.20
2018-05-14T19:57:28.598Z,16.20
2018-05-14T19:59:55.567Z,16.10
2018-05-14T20:02:22.448Z,16.10
2018-05-14T20:04:49.462Z,16.10
2018-05-14T20:07:15.663Z,16.00
2018-05-14T20:09:42.622Z,16.00
2018-05-14T20:12:08.818Z,16.00
2018-05-14T20:14:35.792Z,15.90
2018-05-14T20:17:04.317Z,15.80
2018-05-14T20:19:30.840Z,15.80
2018-05-14T20:21:57.337Z,15.80
2018-05-14T20:24:23.789Z,15.80
2018-05-14T20:26:51.333Z,15.70
2018-05-14T20:29:18.270Z,15.70
2018-05-14T20:31:45.264Z,15.60
2018-05-14T20:34:11.464Z,15.60
2018-05-14T20:36:37.678Z,15.60
2018-05-14T20:39:04.657Z,15.50
2018-05-14T20:41:30.883Z,15.50
2018-05-14T20:43:59.202Z,15.50
2018-05-14T20:46:25.423Z,15.40
2018-05-14T20:48:51.615Z,15.40
2018-05-14T20:51:17.842Z,15.40
2018-05-14T20:53:44.039Z,15.30
2018-05-14T20:56:11.007Z,15.30
2018-05-14T20:58:37.207Z,15.20
2018-05-14T21:01:04.908Z,15.10
2018-05-14T21:03:31.112Z,15.10
2018-05-14T21:05:58.075Z,15.10
2018-05-14T21:08:24.270Z,15.10
2018-05-14T21:10:50.888Z,15.10
2018-05-14T21:13:17.867Z,14.90
2018-05-14T21:15:44.806Z,14.80
2018-05-14T21:18:11.759Z,14.80
2018-05-14T21:20:38.698Z,14.70
2018-05-14T21:23:04.917Z,14.70
2018-05-14T21:25:31.110Z,14.70
2018-05-14T21:27:57.330Z,14.60
2018-05-14T21:30:23.563Z,14.60
2018-05-14T21:32:49.787Z,14.60
2018-05-14T21:35:16.041Z,14.50
2018-05-14T21:37:42.257Z,14.50
2018-05-14T21:40:08.451Z,14.50
2018-05-14T21:42:34.679Z,14.50
2018-05-14T21:45:01.654Z,14.40
2018-05-14T21:47:27.867Z,14.40
2018-05-14T21:49:54.058Z,14.40
2018-05-14T21:52:21.023Z,14.20
2018-05-14T21:54:47.959Z,14.20
2018-05-14T21:57:14.987Z,14.10
2018-05-14T21:59:41.208Z,14.10
2018-05-14T22:02:08.263Z,14.00
2018-05-14T22:04:34.463Z,14.00
2018-05-14T22:07:00.654Z,13.90
2018-05-14T22:09:27.616Z,13.80
2018-05-14T22:11:53.807Z,13.80
2018-05-14T22:14:20.027Z,13.80
2018-05-14T22:16:46.307Z,13.80
2018-05-14T22:19:12.737Z,13.70
2018-05-14T22:21:38.943Z,13.70
2018-05-14T22:24:05.911Z,13.50
2018-05-14T22:26:32.174Z,13.50
2018-05-14T22:28:58.359Z,13.40
2018-05-14T22:31:24.587Z,13.30
2018-05-14T22:33:50.849Z,13.30
2018-05-14T22:36:17.047Z,13.20
2018-05-14T22:38:43.266Z,13.20
2018-05-14T22:41:10.206Z,13.10
2018-05-14T22:43:37.174Z,13.10
2018-05-14T22:46:03.375Z,13.10
2018-05-14T22:48:30.347Z,13.10
2018-05-14T22:50:56.550Z,13.10
2018-05-14T22:53:23.511Z,13.00
2018-05-14T22:55:50.447Z,13.00
2018-05-14T22:58:17.413Z,13.00
2018-05-14T23:00:43.614Z,13.00
2018-05-14T23:03:10.583Z,12.80
2018-05-14T23:05:36.775Z,12.80
2018-05-14T23:08:02.999Z,12.70
2018-05-14T23:10:29.194Z,12.80
2018-05-14T23:12:55.430Z,12.90
2018-05-14T23:15:21.627Z,12.90
2018-05-14T23:17:47.851Z,12.80
2018-05-14T23:20:14.787Z,12.80
2018-05-14T23:22:41.754Z,12.80
2018-05-14T23:25:07.967Z,12.80
2018-05-14T23:27:34.946Z,12.80
2018-05-14T23:30:01.138Z,12.80
2018-05-14T23:32:28.264Z,12.80
2018-05-14T23:34:54.791Z,12.80
2018-05-14T23:37:21.163Z,12.90
2018-05-14T23:39:48.200Z,12.90
2018-05-14T23:42:15.144Z,12.80
2018-05-14T23:44:42.103Z,12.80
2018-05-14T23:47:09.036Z,12.80
2018-05-14T23:49:36.073Z,12.80
2018-05-14T23:52:02.267Z,12.70
2018-05-14T23:54:28.515Z,12.70
2018-05-14T23:56:54.715Z,12.70
2018-05-14T23:59:20.946Z,12.80
